KIRK/IRK METAR and TAF weather

Enter ICAO airport designator
Station Type Date Time Source
KIRK METAR 2019/07/15 19:55 UTC NOAA

KIRK 151955Z AUTO 13011G20KT 10SM FEW050 29/21 A3000 RMK AO2 SLP153 T02940206


Station Type Date Time Source
KIRK Decoded METAR 2019/07/15 19:55 UTC NOAA

KIRKSVILLE REGIONAL AIRPORT , MO, United States (KIRK) 40-06N 092-33W 293M
Jul 15, 2019 - 03:55 PM EDT / 2019.07.15 1955 UTC
Wind: from the SE (130 degrees) at 13 MPH (11 KT) gusting to 23 MPH (20 KT):0
Visibility: 10 mile(s):0
Sky conditions: mostly clear
Temperature: 84.9 F (29.4 C)
Dew Point: 69.1 F (20.6 C)
Relative Humidity: 59%
Pressure (altimeter): 30 in. Hg (1015 hPa)
ob: KIRK 151955Z AUTO 13011G20KT 10SM FEW050 29/21 A3000 RMK AO2 SLP153 T02940206
cycle: 20

Station Type Date Time Source
KIRK TAF UTC NOAA

Error!

Example: see airport list